EmailTwitter


Observations de surface / Québec / CYUL (71627)

Régions: Québec | Canada | États-Unis | Europe | France | UK | Elsewhere
Station
Affichage
Infos & localisation pour CYUL (71627) | Aide pour décoder les METARs

Observations prises le 2017-04-26 à 02H00 UTC à MONTREAL INTL A, QB (CYUL)

Etat du ciel: couvert.

Obstacle(s) à la visibilité: faible pluie.

Température: 10.0 Celsius

Point de rosée: 8.0 Celsius

Humidité relative: 87%

Facteur vent: 8.

Vents: Est à 15 km/h ou 8 noeuds.

Pression au niveau moyen de la mer: 101.86 kilopascals.

Calage altimétrique: 101.83 kilopascals ou 30.07 pouces de mercure.

Visibilité horizontale: 12.00 milles terrestres ou 19.20 kilomètres.

Hauteur du plafond: 1676 mètres ( 5500 pieds ).

Observation METAR:

CYUL 260200Z 10008KT 12SM -RA FEW007 SCT015 OVC055 10/08 A3007 RMK SF1SF2SC5

SLP186=